X  Fechar Metar - Info de Aeroporto     EHRD Rotterdam The Hague Airport
Temperatura
55°F Temperatura
55°F Ptº Orvalho
100% Humidade



Vento
6 MPH
10 KM/H
3 M/S
5 NÓS



200°
SSO
Condições Atuais

Limpo Limpo
Pressão 1023.92 (hPa) - 30.24 (inHg)
Visibilidade 6.2 (milha) - 10 (km)
Aeroporto
Código-Aeropoto EHRD

Localização: Rotterdam The Hague Airport
Distância: 14 (mi)

Metar:
EHRD 300255Z AUTO 20005KT 9999 NSC 13/13 Q1024 NOSIG

Hora: 30-09-2023 04:55 CEST